21 Aug 2018 01:50 UTC 2018233+01:50 UTC

Overview Datums Bench Marks Data Query Site Visit Daily QC Messages Attributes

042: Nueces Delta 2

27° 53' 19" N   97° 34' 10" W
NUDE2
The Coastal Bend Bays & Estuaries Program Coastal Bend Bays and Estuaries Program

Station Information

Nueces Delta 2
Nueces Delta 2
more pictures
 
Station Name:Nueces Delta 2
DNR ID:042
Location:27° 53' 19" N, 97° 34' 10" W

Water Level Forecasts

Latest Observations

Series Metric English Marine Observed at
Water Temperature 30.7 °C 87.3 °F 87.3 °F Aug 20 20:42 CDT
00h07m ago
Salinity 20.000 psu 20.000 psu 20.000 psu Aug 20 20:42 CDT
00h07m ago

Maps

Nueces Delta 2
All Stations in Area
Entire Network
 

Recent Observations

Date/Time Water
Temp (°F)
Sal (psu)
Aug 20 20:00 CDT 88.9 19.600
Aug 20 19:00 CDT 91.0 19.500
Aug 20 18:00 CDT 92.5 19.000
Aug 20 17:00 CDT 93.4 18.900
Aug 20 16:00 CDT 94.1 19.000
Aug 20 15:00 CDT 94.1 19.000
Aug 20 14:00 CDT 91.9 19.000
Aug 20 13:00 CDT 87.8 19.600
Aug 20 12:00 CDT 85.5 19.700
Aug 20 11:00 CDT 82.9 19.800
Aug 20 10:00 CDT 81.0 19.700
Aug 20 09:00 CDT 79.7 19.700
Aug 20 08:00 CDT 79.0 19.400
Aug 20 07:00 CDT 79.3 19.600
Aug 20 06:00 CDT 79.5 19.300
Aug 20 05:00 CDT 81.0 19.700
Aug 20 04:00 CDT 81.3 19.400
Aug 20 03:00 CDT 81.1 19.500
Aug 20 02:00 CDT 81.3 19.700
Aug 20 01:00 CDT 82.0 19.500
Aug 20 00:00 CDT 82.8 19.600
Aug 19 23:00 CDT 83.3 19.500
Aug 19 22:00 CDT 84.2 19.200
Aug 19 21:00 CDT 85.5 19.300
Aug 19 20:00 CDT 87.1 19.500

Historical Data Availability